createdAt,value
2023-01-10T00:00:56.684Z,7.39
2023-01-10T00:03:23.547Z,7.30
2023-01-10T00:05:50.509Z,7.34
2023-01-10T00:08:17.867Z,7.40
2023-01-10T00:10:44.872Z,7.18
2023-01-10T00:13:24.585Z,7.28
2023-01-10T00:15:54.102Z,7.27
2023-01-10T00:18:22.434Z,7.24
2023-01-10T00:20:49.988Z,7.44
2023-01-10T00:23:19.966Z,7.25
2023-01-10T00:25:46.923Z,7.41
2023-01-10T00:28:19.398Z,7.16
2023-01-10T00:30:55.120Z,7.24
2023-01-10T00:33:22.483Z,6.99
2023-01-10T00:35:49.359Z,7.12
2023-01-10T00:38:16.790Z,7.15
2023-01-10T00:40:43.695Z,7.12
2023-01-10T00:43:29.452Z,7.04
2023-01-10T00:45:57.957Z,6.89
2023-01-10T00:48:25.271Z,6.65
2023-01-10T00:50:52.527Z,6.77
2023-01-10T00:53:19.323Z,6.37
2023-01-10T00:55:46.631Z,6.89
2023-01-10T00:58:15.608Z,6.73
2023-01-10T01:00:49.405Z,6.78
2023-01-10T01:03:19.949Z,6.79
2023-01-10T01:05:48.799Z,6.87
2023-01-10T01:08:18.233Z,6.84
2023-01-10T01:10:45.835Z,7.05
2023-01-10T01:13:19.405Z,7.08
2023-01-10T01:15:46.343Z,6.88
2023-01-10T01:18:16.759Z,7.08
2023-01-10T01:20:45.854Z,7.18
2023-01-10T01:23:13.841Z,7.21
2023-01-10T01:25:41.124Z,7.18
2023-01-10T01:28:08.218Z,6.94
2023-01-10T01:30:35.070Z,7.08
2023-01-10T01:33:01.948Z,7.08
2023-01-10T01:35:28.987Z,7.09
2023-01-10T01:37:56.272Z,6.69
2023-01-10T01:40:23.935Z,7.07
2023-01-10T01:42:55.719Z,7.12
2023-01-10T01:45:39.677Z,7.17
2023-01-10T01:48:24.955Z,7.12
2023-01-10T01:51:31.039Z,7.10
2023-01-10T01:54:03.642Z,7.21
2023-01-10T01:56:42.942Z,7.36
2023-01-10T01:59:17.065Z,7.39
2023-01-10T02:01:47.892Z,7.44
2023-01-10T02:04:21.600Z,7.42
2023-01-10T02:06:52.242Z,7.36
2023-01-10T02:09:36.069Z,7.46
2023-01-10T02:12:03.257Z,7.40
2023-01-10T02:14:32.086Z,7.38
2023-01-10T02:16:58.990Z,7.46
2023-01-10T02:19:50.801Z,7.40
2023-01-10T02:23:05.499Z,7.38
2023-01-10T02:26:23.199Z,7.44
2023-01-10T02:29:25.654Z,7.50
2023-01-10T02:32:42.046Z,7.42
2023-01-10T02:35:40.812Z,7.46
2023-01-10T02:38:33.649Z,7.32
2023-01-10T02:41:16.802Z,7.36
2023-01-10T02:43:54.302Z,7.19
2023-01-10T02:46:27.574Z,7.17
2023-01-10T02:48:55.823Z,7.24
2023-01-10T02:51:29.805Z,7.14
2023-01-10T02:54:16.385Z,7.14
2023-01-10T02:57:09.600Z,7.15
2023-01-10T02:59:52.571Z,7.15
2023-01-10T03:02:47.559Z,7.27
2023-01-10T03:05:49.258Z,7.20
2023-01-10T03:08:33.134Z,7.26
2023-01-10T03:11:09.124Z,7.22
2023-01-10T03:13:47.858Z,7.17
2023-01-10T03:16:25.058Z,7.25
2023-01-10T03:18:58.446Z,7.38
2023-01-10T03:21:28.151Z,7.24
2023-01-10T03:24:00.963Z,7.20
2023-01-10T03:26:43.605Z,7.01
2023-01-10T03:29:13.160Z,7.15
2023-01-10T03:31:57.724Z,7.11
2023-01-10T03:34:25.624Z,6.62
2023-01-10T03:37:09.828Z,7.06
2023-01-10T03:39:44.641Z,7.03
2023-01-10T03:42:25.479Z,7.02
2023-01-10T03:45:02.454Z,6.86
2023-01-10T03:47:45.565Z,7.05
2023-01-10T03:50:20.283Z,6.92
2023-01-10T03:52:47.470Z,7.00
2023-01-10T03:55:20.213Z,7.16
2023-01-10T03:57:47.407Z,6.94
2023-01-10T04:00:15.417Z,6.98
2023-01-10T04:02:42.718Z,7.05
2023-01-10T04:05:09.864Z,7.09
2023-01-10T04:07:36.901Z,6.99
2023-01-10T04:10:05.871Z,6.83
2023-01-10T04:12:33.147Z,7.05
2023-01-10T04:15:01.406Z,7.17
2023-01-10T04:17:28.461Z,7.16
2023-01-10T04:19:55.302Z,7.22
2023-01-10T04:22:22.116Z,7.25
2023-01-10T04:24:51.320Z,7.19
2023-01-10T04:27:19.063Z,7.14
2023-01-10T04:29:46.278Z,7.14
2023-01-10T04:32:13.268Z,7.16
2023-01-10T04:34:40.055Z,7.18
2023-01-10T04:37:06.994Z,7.24
2023-01-10T04:39:33.804Z,7.21
2023-01-10T04:42:00.662Z,7.19
2023-01-10T04:44:27.526Z,7.09
2023-01-10T04:46:54.416Z,7.18
2023-01-10T04:49:21.207Z,7.22
2023-01-10T04:51:48.032Z,6.97
2023-01-10T04:54:14.828Z,7.09
2023-01-10T04:56:41.703Z,7.19
2023-01-10T04:59:10.316Z,7.21
2023-01-10T05:01:39.064Z,7.10
2023-01-10T05:04:06.934Z,7.27
2023-01-10T05:06:34.083Z,7.28
2023-01-10T05:09:00.879Z,7.24
2023-01-10T05:11:27.720Z,7.22
2023-01-10T05:13:54.558Z,7.30
2023-01-10T05:16:21.421Z,7.21
2023-01-10T05:18:48.332Z,7.15
2023-01-10T05:21:15.208Z,7.28
2023-01-10T05:23:42.139Z,7.41
2023-01-10T05:26:13.066Z,7.40
2023-01-10T05:28:40.798Z,7.08
2023-01-10T05:31:10.116Z,7.32
2023-01-10T05:33:37.099Z,7.27
2023-01-10T05:36:06.715Z,7.08
2023-01-10T05:38:34.093Z,7.06
2023-01-10T05:41:01.302Z,7.01
2023-01-10T05:43:29.535Z,7.11
2023-01-10T05:45:56.487Z,7.19
2023-01-10T05:48:23.745Z,7.29
2023-01-10T05:50:51.983Z,7.34
2023-01-10T05:53:19.861Z,7.18
2023-01-10T05:56:01.483Z,7.17
2023-01-10T05:58:29.583Z,7.18
2023-01-10T06:00:57.220Z,7.21
2023-01-10T06:03:26.534Z,7.27
2023-01-10T06:05:55.415Z,6.99
2023-01-10T06:08:23.111Z,6.94
2023-01-10T06:10:50.515Z,7.09
2023-01-10T06:13:17.576Z,7.24
2023-01-10T06:15:44.553Z,7.14
2023-01-10T06:18:12.547Z,7.12
2023-01-10T06:20:40.962Z,7.25
2023-01-10T06:23:08.053Z,7.01
2023-01-10T06:25:40.151Z,7.20
2023-01-10T06:28:09.390Z,7.20
2023-01-10T06:30:36.249Z,7.21
2023-01-10T06:33:08.638Z,7.13
2023-01-10T06:35:36.292Z,6.99
2023-01-10T06:38:03.775Z,7.04
2023-01-10T06:40:30.960Z,7.14
2023-01-10T06:42:59.124Z,7.12
2023-01-10T06:45:25.994Z,7.00
2023-01-10T06:47:53.003Z,6.96
2023-01-10T06:50:19.970Z,6.80
2023-01-10T06:52:46.805Z,6.68
2023-01-10T06:55:13.666Z,6.91
2023-01-10T06:57:40.569Z,7.14
2023-01-10T07:00:09.419Z,7.02
2023-01-10T07:02:36.822Z,6.96
2023-01-10T07:05:03.939Z,6.91
2023-01-10T07:07:30.906Z,7.00
2023-01-10T07:09:59.648Z,7.02
2023-01-10T07:12:26.570Z,6.92
2023-01-10T07:14:53.421Z,6.75
2023-01-10T07:17:20.254Z,6.59
2023-01-10T07:19:47.107Z,6.69
2023-01-10T07:22:13.973Z,6.66
2023-01-10T07:24:40.816Z,6.69
2023-01-10T07:27:07.723Z,6.63
2023-01-10T07:29:34.572Z,6.53
2023-01-10T07:32:01.373Z,6.62
2023-01-10T07:34:28.183Z,6.38
2023-01-10T07:36:54.964Z,6.60
2023-01-10T07:39:21.830Z,6.73
2023-01-10T07:41:50.191Z,6.34
2023-01-10T07:44:17.235Z,6.66
2023-01-10T07:46:44.103Z,6.74
2023-01-10T07:49:10.890Z,6.77
2023-01-10T07:51:37.765Z,6.80
2023-01-10T07:54:04.621Z,6.95
2023-01-10T07:56:31.519Z,7.05
2023-01-10T07:58:58.679Z,6.98
2023-01-10T08:01:26.039Z,7.16
2023-01-10T08:03:53.035Z,7.22
2023-01-10T08:06:19.882Z,7.12
2023-01-10T08:08:46.730Z,6.99
2023-01-10T08:11:13.846Z,6.98
2023-01-10T08:13:40.720Z,6.84
2023-01-10T08:16:08.888Z,7.07
2023-01-10T08:18:36.136Z,7.11
2023-01-10T08:21:03.054Z,7.12
2023-01-10T08:23:30.134Z,6.94
2023-01-10T08:25:59.656Z,7.00
2023-01-10T08:28:26.522Z,7.05
2023-01-10T08:30:55.737Z,6.90
2023-01-10T08:33:24.840Z,7.21
2023-01-10T08:35:52.033Z,7.25
2023-01-10T08:38:19.005Z,7.14
2023-01-10T08:40:45.967Z,7.25
2023-01-10T08:43:13.577Z,7.28
2023-01-10T08:45:40.938Z,7.49
2023-01-10T08:48:09.581Z,7.41
2023-01-10T08:50:36.731Z,7.52
2023-01-10T08:53:04.127Z,7.71
2023-01-10T08:55:31.215Z,7.72
2023-01-10T08:58:02.281Z,7.85
2023-01-10T09:00:29.670Z,7.77
2023-01-10T09:02:56.723Z,7.66
2023-01-10T09:05:28.160Z,7.78
2023-01-10T09:08:01.600Z,7.60
2023-01-10T09:10:30.093Z,7.85
2023-01-10T09:13:01.415Z,8.02
2023-01-10T09:15:32.362Z,8.10
2023-01-10T09:18:02.670Z,8.01
2023-01-10T09:20:30.183Z,8.18
2023-01-10T09:22:58.449Z,8.11
2023-01-10T09:25:25.887Z,7.87
2023-01-10T09:28:01.279Z,8.00
2023-01-10T09:30:29.771Z,7.94
2023-01-10T09:32:57.771Z,8.20
2023-01-10T09:35:27.511Z,7.53
2023-01-10T09:37:56.789Z,7.92
2023-01-10T09:41:02.047Z,8.19
2023-01-10T09:43:51.853Z,7.92
2023-01-10T09:46:38.555Z,7.83
2023-01-10T09:49:29.580Z,8.07
2023-01-10T09:51:59.198Z,7.76
2023-01-10T09:54:32.254Z,7.85
2023-01-10T09:57:01.232Z,7.58
2023-01-10T09:59:38.202Z,7.75
2023-01-10T10:02:30.953Z,7.89
2023-01-10T10:05:18.761Z,7.61
2023-01-10T10:07:52.667Z,7.93
2023-01-10T10:11:19.128Z,7.81
2023-01-10T10:14:04.750Z,7.84
2023-01-10T10:17:02.877Z,8.05
2023-01-10T10:20:13.502Z,7.83
2023-01-10T10:22:57.451Z,7.57
2023-01-10T10:25:49.180Z,7.64
2023-01-10T10:29:23.583Z,7.43
2023-01-10T10:32:50.906Z,7.88
2023-01-10T10:35:33.677Z,7.62
2023-01-10T10:38:17.212Z,7.45
2023-01-10T10:40:46.656Z,7.95
2023-01-10T10:43:26.975Z,8.22
2023-01-10T10:46:05.701Z,8.18
2023-01-10T10:48:38.742Z,8.21
2023-01-10T10:51:24.449Z,8.16
2023-01-10T10:53:51.292Z,8.33
2023-01-10T10:56:21.813Z,8.28
2023-01-10T10:58:53.758Z,8.07
2023-01-10T11:01:20.930Z,8.54
2023-01-10T11:04:12.466Z,8.54
2023-01-10T11:06:45.825Z,8.97
2023-01-10T11:09:14.832Z,8.67
2023-01-10T11:11:47.785Z,8.98
2023-01-10T11:14:14.642Z,9.03
2023-01-10T11:16:45.002Z,8.80
2023-01-10T11:19:26.938Z,8.66
2023-01-10T11:22:01.195Z,8.85
2023-01-10T11:24:32.377Z,8.18
2023-01-10T11:27:04.646Z,8.15
2023-01-10T11:29:39.684Z,8.21
2023-01-10T11:32:15.326Z,8.36
2023-01-10T11:34:50.563Z,8.36
2023-01-10T11:37:17.390Z,8.41
2023-01-10T11:39:44.865Z,8.73
2023-01-10T11:42:30.497Z,8.64
2023-01-10T11:45:34.066Z,8.73
2023-01-10T11:48:18.573Z,8.52
2023-01-10T11:50:51.315Z,8.53
2023-01-10T11:53:48.915Z,8.68
2023-01-10T11:56:27.657Z,8.72
2023-01-10T11:58:55.080Z,9.13
2023-01-10T12:01:37.440Z,8.83
2023-01-10T12:04:04.968Z,8.83
2023-01-10T12:06:33.387Z,9.31
2023-01-10T12:09:00.271Z,9.55
2023-01-10T12:11:32.845Z,9.38
2023-01-10T12:14:01.712Z,9.34
2023-01-10T12:16:33.632Z,9.45
2023-01-10T12:19:04.805Z,9.31
2023-01-10T12:21:45.635Z,9.58
2023-01-10T12:24:35.934Z,9.16
2023-01-10T12:27:04.231Z,9.50
2023-01-10T12:29:41.274Z,9.55
2023-01-10T12:32:25.421Z,9.73
2023-01-10T12:35:01.404Z,9.77
2023-01-10T12:37:55.511Z,9.65
2023-01-10T12:40:45.570Z,9.91
2023-01-10T12:43:36.353Z,9.43
2023-01-10T12:47:04.250Z,9.51
2023-01-10T12:49:31.087Z,9.41
2023-01-10T12:52:06.058Z,9.39
2023-01-10T12:54:32.977Z,9.57
2023-01-10T12:57:24.454Z,9.40
2023-01-10T12:59:53.563Z,9.19
2023-01-10T13:02:25.627Z,9.21
2023-01-10T13:04:58.866Z,9.27
2023-01-10T13:07:34.595Z,9.19
2023-01-10T13:10:04.240Z,9.43
2023-01-10T13:12:40.829Z,9.38
2023-01-10T13:15:23.307Z,9.48
2023-01-10T13:18:18.648Z,9.39
2023-01-10T13:20:45.984Z,9.60
2023-01-10T13:23:30.188Z,9.38
2023-01-10T13:26:01.857Z,9.70
2023-01-10T13:28:31.156Z,9.41
2023-01-10T13:31:01.468Z,9.82
2023-01-10T13:33:57.839Z,9.86
2023-01-10T13:36:35.822Z,9.95
2023-01-10T13:39:08.821Z,9.92
2023-01-10T13:42:16.116Z,10.06
2023-01-10T13:45:01.042Z,9.59
2023-01-10T13:47:57.051Z,9.64
2023-01-10T13:50:23.949Z,9.58
2023-01-10T13:53:02.911Z,8.89
2023-01-10T13:55:39.633Z,9.31
2023-01-10T13:58:15.584Z,9.18
2023-01-10T14:01:10.628Z,9.17
2023-01-10T14:03:58.572Z,9.10
2023-01-10T14:06:28.282Z,9.18
2023-01-10T14:09:03.443Z,9.16
2023-01-10T14:11:50.081Z,9.77
2023-01-10T14:14:39.842Z,9.64
2023-01-10T14:17:21.319Z,9.92
2023-01-10T14:20:00.828Z,10.69
2023-01-10T14:22:31.631Z,10.67
2023-01-10T14:25:01.681Z,9.71
2023-01-10T14:27:43.670Z,9.57
2023-01-10T14:30:24.840Z,9.25
2023-01-10T14:32:57.712Z,9.28
2023-01-10T14:35:34.635Z,9.23
2023-01-10T14:38:03.693Z,9.02
2023-01-10T14:40:48.478Z,9.14
2023-01-10T14:43:30.448Z,9.29
2023-01-10T14:46:12.600Z,9.50
2023-01-10T14:48:52.112Z,10.10
2023-01-10T14:51:32.088Z,10.25
2023-01-10T14:54:14.044Z,10.03
2023-01-10T14:56:51.038Z,9.96
2023-01-10T14:59:36.150Z,9.94
2023-01-10T15:02:23.433Z,9.98
2023-01-10T15:05:01.359Z,9.72
2023-01-10T15:07:28.909Z,9.45
2023-01-10T15:10:03.965Z,9.42
2023-01-10T15:12:32.846Z,9.27
2023-01-10T15:15:07.822Z,9.09
2023-01-10T15:17:37.195Z,8.57
2023-01-10T15:20:05.372Z,8.53
2023-01-10T15:22:35.767Z,8.48
2023-01-10T15:25:05.713Z,8.32
2023-01-10T15:27:33.870Z,8.15
2023-01-10T15:30:01.342Z,8.02
2023-01-10T15:32:39.263Z,7.84
2023-01-10T15:35:08.864Z,7.61
2023-01-10T15:37:40.800Z,7.54
2023-01-10T15:40:21.359Z,7.34
2023-01-10T15:42:48.331Z,7.28
2023-01-10T15:45:38.929Z,7.15
2023-01-10T15:48:19.850Z,6.94
2023-01-10T15:50:56.262Z,6.75
2023-01-10T15:53:57.288Z,6.73
2023-01-10T15:56:28.723Z,6.62
2023-01-10T15:58:57.816Z,6.55
2023-01-10T16:01:27.144Z,6.46
2023-01-10T16:03:58.681Z,6.34
2023-01-10T16:06:34.057Z,6.32
2023-01-10T16:09:08.660Z,6.31
2023-01-10T16:12:11.701Z,6.28
2023-01-10T16:14:38.509Z,6.22
2023-01-10T16:17:05.848Z,6.19
2023-01-10T16:19:33.007Z,6.08
2023-01-10T16:22:00.401Z,6.02
2023-01-10T16:24:34.226Z,5.69
2023-01-10T16:27:05.878Z,5.81
2023-01-10T16:29:33.926Z,5.77
2023-01-10T16:32:00.962Z,5.60
2023-01-10T16:34:27.774Z,5.57
2023-01-10T16:36:54.687Z,5.49
2023-01-10T16:39:23.811Z,5.38
2023-01-10T16:42:09.032Z,5.33
2023-01-10T16:44:36.176Z,5.29
2023-01-10T16:47:06.741Z,5.22
2023-01-10T16:49:34.236Z,5.14
2023-01-10T16:52:01.158Z,5.06
2023-01-10T16:54:28.328Z,4.98
2023-01-10T16:56:55.780Z,4.95
2023-01-10T16:59:22.793Z,4.93
2023-01-10T17:01:54.687Z,4.92
2023-01-10T17:04:29.943Z,4.88
2023-01-10T17:06:57.120Z,4.71
2023-01-10T17:09:30.750Z,4.68
2023-01-10T17:12:14.053Z,4.64
2023-01-10T17:14:40.942Z,4.62
2023-01-10T17:17:09.203Z,4.55
2023-01-10T17:19:37.127Z,4.50
2023-01-10T17:22:04.031Z,4.38
2023-01-10T17:24:30.912Z,4.40
2023-01-10T17:26:57.729Z,4.43
2023-01-10T17:29:25.089Z,4.44
2023-01-10T17:31:52.025Z,4.46
2023-01-10T17:34:18.977Z,4.44
2023-01-10T17:36:45.804Z,4.44
2023-01-10T17:39:12.759Z,4.46
2023-01-10T17:41:39.706Z,4.43
2023-01-10T17:44:06.564Z,4.47
2023-01-10T17:46:33.507Z,4.47
2023-01-10T17:49:02.580Z,4.49
2023-01-10T17:51:31.129Z,4.47
2023-01-10T17:53:58.379Z,4.41
2023-01-10T17:56:25.230Z,4.40
2023-01-10T17:58:52.969Z,4.34
2023-01-10T18:01:25.815Z,4.26
2023-01-10T18:03:53.715Z,4.21
2023-01-10T18:06:25.073Z,4.12
2023-01-10T18:08:53.316Z,4.03
2023-01-10T18:11:21.082Z,4.00
2023-01-10T18:13:47.904Z,3.98
2023-01-10T18:16:14.766Z,3.99
2023-01-10T18:18:41.684Z,3.86
2023-01-10T18:21:16.390Z,3.83
2023-01-10T18:23:43.698Z,3.85
2023-01-10T18:26:12.564Z,3.89
2023-01-10T18:28:43.320Z,3.85
2023-01-10T18:31:18.498Z,3.92
2023-01-10T18:33:46.754Z,3.98
2023-01-10T18:36:20.597Z,4.03
2023-01-10T18:38:48.239Z,4.07
2023-01-10T18:41:16.847Z,4.06
2023-01-10T18:43:43.792Z,4.08
2023-01-10T18:46:18.486Z,4.14
2023-01-10T18:48:46.881Z,4.14
2023-01-10T18:51:14.760Z,4.13
2023-01-10T18:53:43.040Z,4.14
2023-01-10T18:56:10.826Z,4.10
2023-01-10T18:58:42.843Z,4.09
2023-01-10T19:01:19.726Z,4.00
2023-01-10T19:03:46.910Z,3.92
2023-01-10T19:06:17.099Z,3.89
2023-01-10T19:08:45.992Z,3.83
2023-01-10T19:11:16.253Z,3.64
2023-01-10T19:13:45.368Z,3.53
2023-01-10T19:16:13.431Z,3.42
2023-01-10T19:18:40.672Z,3.35
2023-01-10T19:21:14.764Z,3.29
2023-01-10T19:23:46.265Z,3.23
2023-01-10T19:26:13.862Z,3.18
2023-01-10T19:28:43.268Z,3.23
2023-01-10T19:31:18.365Z,3.18
2023-01-10T19:33:46.235Z,3.16
2023-01-10T19:36:13.856Z,3.15
2023-01-10T19:38:40.790Z,3.17
2023-01-10T19:41:07.743Z,3.17
2023-01-10T19:43:34.577Z,3.13
2023-01-10T19:46:12.698Z,3.13
2023-01-10T19:48:40.242Z,3.17
2023-01-10T19:51:10.116Z,3.17
2023-01-10T19:53:42.082Z,3.18
2023-01-10T19:56:10.039Z,3.16
2023-01-10T19:58:38.501Z,3.12
2023-01-10T20:01:21.348Z,3.13
2023-01-10T20:03:48.262Z,3.05
2023-01-10T20:06:21.781Z,2.92
2023-01-10T20:08:49.241Z,2.92
2023-01-10T20:11:18.046Z,2.94
2023-01-10T20:13:45.372Z,2.94
2023-01-10T20:16:15.277Z,2.95
2023-01-10T20:18:43.222Z,3.00
2023-01-10T20:21:12.815Z,3.01
2023-01-10T20:23:41.069Z,3.02
2023-01-10T20:26:19.289Z,2.97
2023-01-10T20:28:47.938Z,2.99
2023-01-10T20:31:20.740Z,3.01
2023-01-10T20:33:48.460Z,3.02
2023-01-10T20:36:20.887Z,3.03
2023-01-10T20:38:48.824Z,2.99
2023-01-10T20:41:25.857Z,3.00
2023-01-10T20:43:54.863Z,3.05
2023-01-10T20:46:26.609Z,3.06
2023-01-10T20:48:55.993Z,3.07
2023-01-10T20:51:27.598Z,3.10
2023-01-10T20:53:55.003Z,3.17
2023-01-10T20:56:29.016Z,3.19
2023-01-10T20:58:56.734Z,3.18
2023-01-10T21:01:34.162Z,3.13
2023-01-10T21:04:04.196Z,3.11
2023-01-10T21:06:31.611Z,3.05
2023-01-10T21:08:58.895Z,2.97
2023-01-10T21:11:25.758Z,2.96
2023-01-10T21:13:52.812Z,2.95
2023-01-10T21:16:22.179Z,3.00
2023-01-10T21:18:50.428Z,3.08
2023-01-10T21:21:22.374Z,3.14
2023-01-10T21:23:49.499Z,3.15
2023-01-10T21:26:16.635Z,3.20
2023-01-10T21:28:47.746Z,3.18
2023-01-10T21:31:18.428Z,3.30
2023-01-10T21:33:45.605Z,3.32
2023-01-10T21:36:14.049Z,3.39
2023-01-10T21:38:41.678Z,3.45
2023-01-10T21:41:15.159Z,3.45
2023-01-10T21:43:45.345Z,3.44
2023-01-10T21:46:13.202Z,3.46
2023-01-10T21:48:41.216Z,3.53
2023-01-10T21:51:08.105Z,3.57
2023-01-10T21:53:34.881Z,3.59
2023-01-10T21:56:01.759Z,3.63
2023-01-10T21:58:28.654Z,3.69
2023-01-10T22:00:58.901Z,3.60
2023-01-10T22:03:26.691Z,3.46
2023-01-10T22:05:54.060Z,3.57
2023-01-10T22:08:20.879Z,3.57
2023-01-10T22:10:48.188Z,3.57
2023-01-10T22:13:15.196Z,3.58
2023-01-10T22:15:43.323Z,3.60
2023-01-10T22:18:10.216Z,3.62
2023-01-10T22:20:37.044Z,3.62
2023-01-10T22:23:03.909Z,3.56
2023-01-10T22:25:30.764Z,3.60
2023-01-10T22:27:57.588Z,3.70
2023-01-10T22:30:24.431Z,3.72
2023-01-10T22:32:56.530Z,3.70
2023-01-10T22:35:26.129Z,3.74
2023-01-10T22:37:55.922Z,3.69
2023-01-10T22:40:23.619Z,3.76
2023-01-10T22:42:54.623Z,3.77
2023-01-10T22:45:21.548Z,3.80
2023-01-10T22:47:49.624Z,3.83
2023-01-10T22:50:19.643Z,3.75
2023-01-10T22:52:50.327Z,3.76
2023-01-10T22:55:20.143Z,3.78
2023-01-10T22:57:47.614Z,3.73
2023-01-10T23:00:15.447Z,3.74
2023-01-10T23:02:42.253Z,3.75
2023-01-10T23:05:09.260Z,3.79
2023-01-10T23:07:36.121Z,3.76
2023-01-10T23:10:05.016Z,3.75
2023-01-10T23:12:31.900Z,3.74
2023-01-10T23:14:58.677Z,3.75
2023-01-10T23:17:25.546Z,3.78
2023-01-10T23:19:52.462Z,3.81
2023-01-10T23:22:19.390Z,3.87
2023-01-10T23:24:46.175Z,3.84
2023-01-10T23:27:13.024Z,3.86
2023-01-10T23:29:39.818Z,3.92
2023-01-10T23:32:06.964Z,3.89
2023-01-10T23:34:33.864Z,3.93
2023-01-10T23:37:00.791Z,3.92
2023-01-10T23:39:27.606Z,3.93
2023-01-10T23:41:54.642Z,3.97
2023-01-10T23:44:21.570Z,3.96
2023-01-10T23:46:48.377Z,3.97
2023-01-10T23:49:15.263Z,3.96
2023-01-10T23:51:42.051Z,3.97
2023-01-10T23:54:08.974Z,3.99
2023-01-10T23:56:35.812Z,3.97
2023-01-10T23:59:02.723Z,4.00
